Time;durP1;ratioP1;P1;durP2;ratioP2;P2;SDS_P1;SDS_P2;PMS_P1;PMS_P2;Temp;Humidity;BMP_temperature;BMP_pressure;BME280_temperature;BME280_humidity;BME280_pressure;Samples;Min_cycle;Max_cycle;Signal;HPM_P1;HPM_P2
2023/07/20 00:01:26;;;;;;;4.20;1.58;;;20.50;99.90;;;;;;5059595;28;20063;-32
2023/07/20 00:03:56;;;;;;;2.13;1.20;;;20.50;99.90;;;;;;5072903;28;20044;-29
2023/07/20 00:06:24;;;;;;;4.22;1.58;;;20.50;99.90;;;;;;5067114;28;20032;-31
2023/07/20 00:08:50;;;;;;;;;;;20.50;99.90;;;;;;5064976;28;20060;-31
2023/07/20 00:11:16;;;;;;;1.80;1.40;;;20.40;99.90;;;;;;5063627;28;19916;-30
2023/07/20 00:13:42;;;;;;;3.25;1.40;;;20.40;99.90;;;;;;5068597;28;20082;-30
2023/07/20 00:16:08;;;;;;;2.17;1.30;;;20.40;99.90;;;;;;5061963;28;20391;-30
2023/07/20 00:18:33;;;;;;;2.20;1.20;;;20.40;99.90;;;;;;5062022;28;20036;-40
2023/07/20 00:21:02;;;;;;;2.65;1.30;;;20.30;99.90;;;;;;5060317;28;20035;-42
2023/07/20 00:23:28;;;;;;;3.53;1.63;;;20.30;99.90;;;;;;5064819;28;20036;-36
2023/07/20 00:25:53;;;;;;;2.30;1.35;;;20.30;99.90;;;;;;5059858;28;20042;-41
2023/07/20 00:28:19;;;;;;;2.20;1.35;;;20.30;99.90;;;;;;5059963;28;20025;-41
2023/07/20 00:30:45;;;;;;;3.20;1.20;;;20.30;99.90;;;;;;5061380;28;20036;-40
2023/07/20 00:33:11;;;;;;;3.70;1.27;;;20.20;99.90;;;;;;5059681;28;20063;-41
2023/07/20 00:35:40;;;;;;;8.65;1.67;;;20.30;99.90;;;;;;5055586;28;20025;-36
2023/07/20 00:38:06;;;;;;;3.40;1.33;;;20.20;99.90;;;;;;5058486;28;20043;-41
2023/07/20 00:40:38;;;;;;;3.20;1.30;;;20.20;99.90;;;;;;5060892;28;20528;-41
2023/07/20 00:43:05;;;;;;;3.97;1.48;;;20.20;99.90;;;;;;5079396;28;20029;-40
2023/07/20 00:45:32;;;;;;;2.58;1.65;;;20.20;99.90;;;;;;5067885;28;20093;-41
2023/07/20 00:47:58;;;;;;;3.35;1.17;;;20.20;99.90;;;;;;5060236;28;20028;-41
2023/07/20 00:50:28;;;;;;;1.58;1.17;;;20.20;99.90;;;;;;5059381;28;20037;-40
2023/07/20 00:52:55;;;;;;;2.28;1.10;;;20.10;99.90;;;;;;5063420;28;20032;-41
2023/07/20 00:55:22;;;;;;;3.80;2.03;;;20.20;99.90;;;;;;5064022;28;20551;-39
2023/07/20 00:57:48;;;;;;;1.95;1.23;;;20.20;99.90;;;;;;5072704;28;20037;-39
2023/07/20 01:00:15;;;;;;;1.20;1.05;;;20.20;99.90;;;;;;5077967;28;20040;-40
2023/07/20 01:02:40;;;;;;;3.65;1.20;;;20.30;99.90;;;;;;5053486;28;20037;-33
2023/07/20 01:05:07;;;;;;;1.55;1.20;;;20.30;99.90;;;;;;5059856;28;20070;-32
2023/07/20 01:07:38;;;;;;;3.53;1.38;;;20.20;99.90;;;;;;5057258;28;20029;-32
2023/07/20 01:10:04;;;;;;;3.00;1.10;;;20.00;99.90;;;;;;5074706;28;20035;-33
2023/07/20 01:12:41;;;;;;;1.48;1.30;;;19.90;99.90;;;;;;5057214;28;20478;-33
2023/07/20 01:15:07;;;;;;;1.60;1.05;;;19.90;99.90;;;;;;5059772;28;20012;-32
2023/07/20 01:17:34;;;;;;;3.38;1.23;;;19.90;99.90;;;;;;5061775;28;20025;-32
2023/07/20 01:20:00;;;;;;;2.88;1.40;;;19.90;99.90;;;;;;5063537;28;20434;-32
2023/07/20 01:22:51;;;;;;;2.65;1.42;;;20.00;99.90;;;;;;5062015;28;20428;-31
2023/07/20 01:25:55;;;;;;;2.00;1.27;;;20.00;99.90;;;;;;5060976;28;20071;-32
2023/07/20 01:28:35;;;;;;;1.88;1.20;;;19.80;99.90;;;;;;5064584;28;20028;-34
2023/07/20 01:31:30;;;;;;;2.63;1.42;;;19.80;99.90;;;;;;5062862;28;20131;-32
2023/07/20 01:33:58;;;;;;;1.92;1.55;;;19.70;99.90;;;;;;5061157;28;20025;-35
2023/07/20 01:36:24;;;;;;;;;;;19.70;99.90;;;;;;5067833;28;20024;-32
2023/07/20 01:38:51;;;;;;;2.38;1.10;;;19.70;99.90;;;;;;5067644;28;19908;-34
2023/07/20 01:41:18;;;;;;;2.45;0.90;;;19.60;99.90;;;;;;5065137;28;20016;-32
2023/07/20 01:43:44;;;;;;;3.08;1.23;;;19.60;99.90;;;;;;5065309;28;20078;-33
2023/07/20 01:46:10;;;;;;;2.15;1.13;;;19.60;99.90;;;;;;5063543;28;20029;-36
2023/07/20 01:48:35;;;;;;;1.63;1.10;;;19.60;99.90;;;;;;5062937;28;20530;-31
2023/07/20 01:51:01;;;;;;;2.45;1.45;;;19.60;99.90;;;;;;5063162;28;20179;-32
2023/07/20 01:53:27;;;;;;;2.17;1.20;;;19.60;99.90;;;;;;5066545;28;20024;-32
2023/07/20 01:55:54;;;;;;;2.65;1.65;;;19.60;99.90;;;;;;5067166;28;20043;-32
2023/07/20 01:58:20;;;;;;;2.95;1.40;;;19.60;99.90;;;;;;5067214;28;20044;-31
2023/07/20 02:00:46;;;;;;;1.25;1.15;;;19.60;99.90;;;;;;5063486;28;20517;-32
2023/07/20 02:03:14;;;;;;;2.45;1.20;;;19.60;99.90;;;;;;5065039;28;20039;-36
2023/07/20 02:05:42;;;;;;;1.10;1.10;;;19.60;99.90;;;;;;5064664;28;20043;-31
2023/07/20 02:08:07;;;;;;;2.15;1.40;;;19.60;99.90;;;;;;5065288;28;20058;-42
2023/07/20 02:10:33;;;;;;;1.45;1.33;;;19.50;99.90;;;;;;5067055;28;20025;-41
2023/07/20 02:12:59;;;;;;;3.88;1.40;;;19.50;99.90;;;;;;5065955;28;20032;-40
2023/07/20 02:15:25;;;;;;;3.22;1.42;;;19.60;99.90;;;;;;5079665;28;20059;-42
2023/07/20 02:17:50;;;;;;;2.85;1.38;;;19.50;99.90;;;;;;5068489;28;20139;-42
2023/07/20 02:20:17;;;;;;;1.60;1.42;;;19.40;99.90;;;;;;5061671;28;20383;-40
2023/07/20 02:22:42;;;;;;;2.22;1.50;;;19.40;99.90;;;;;;5097830;28;20038;-42
2023/07/20 02:25:08;;;;;;;1.80;1.40;;;19.40;99.90;;;;;;5064222;28;20033;-41
2023/07/20 02:27:34;;;;;;;3.63;1.60;;;19.30;99.90;;;;;;5067034;28;20115;-42
2023/07/20 02:30:00;;;;;;;1.30;1.20;;;19.30;99.90;;;;;;5067068;28;20120;-38
2023/07/20 02:32:26;;;;;;;2.05;1.30;;;19.20;99.90;;;;;;5081563;28;20028;-42
2023/07/20 02:34:52;;;;;;;3.08;1.60;;;19.20;99.90;;;;;;5067765;28;20501;-42
2023/07/20 02:37:18;;;;;;;2.05;1.48;;;19.30;99.90;;;;;;5064448;28;20037;-40
2023/07/20 02:39:43;;;;;;;2.08;1.30;;;19.40;99.90;;;;;;5062764;28;20271;-40
2023/07/20 02:42:09;;;;;;;2.35;1.63;;;19.40;99.90;;;;;;5060709;28;20056;-40
2023/07/20 02:44:35;;;;;;;1.55;1.30;;;19.30;99.90;;;;;;5067142;28;20095;-42
2023/07/20 02:47:00;;;;;;;2.70;1.42;;;19.30;99.90;;;;;;5062231;28;20127;-42
2023/07/20 02:49:27;;;;;;;2.08;1.40;;;19.30;99.90;;;;;;5068085;28;20119;-41
2023/07/20 02:51:52;;;;;;;2.78;1.33;;;19.40;99.90;;;;;;5066028;28;20531;-42
2023/07/20 02:54:18;;;;;;;3.03;1.50;;;19.30;99.90;;;;;;5064883;28;20102;-42
2023/07/20 02:56:44;;;;;;;3.33;1.60;;;19.30;99.90;;;;;;5063208;28;20032;-41
2023/07/20 02:59:10;;;;;;;1.42;1.33;;;19.20;99.90;;;;;;5074830;28;20716;-43
2023/07/20 03:01:35;;;;;;;1.75;1.50;;;19.20;99.90;;;;;;5061365;28;20036;-42
2023/07/20 03:04:02;;;;;;;1.42;1.33;;;19.20;99.90;;;;;;5067863;28;20039;-41
2023/07/20 03:06:27;;;;;;;3.47;1.70;;;19.20;99.90;;;;;;5060349;28;20398;-37
2023/07/20 03:08:53;;;;;;;3.95;1.45;;;19.30;99.90;;;;;;5064660;28;20039;-42
2023/07/20 03:11:20;;;;;;;4.00;1.50;;;19.30;99.90;;;;;;5062248;28;20391;-39
2023/07/20 03:13:46;;;;;;;1.70;1.38;;;19.20;99.90;;;;;;5065547;28;20397;-41
2023/07/20 03:16:17;;;;;;;2.30;1.42;;;19.20;99.90;;;;;;5063745;28;20372;-38
2023/07/20 03:18:43;;;;;;;1.30;1.10;;;19.20;99.90;;;;;;5061740;28;20059;-41
2023/07/20 03:21:11;;;;;;;2.17;1.40;;;19.20;99.90;;;;;;5064267;28;20025;-41
2023/07/20 03:23:37;;;;;;;1.80;1.70;;;19.20;99.90;;;;;;5056639;28;20071;-41
2023/07/20 03:26:03;;;;;;;3.08;1.55;;;19.20;99.90;;;;;;5067240;28;20492;-39
2023/07/20 03:28:29;;;;;;;1.17;1.10;;;19.20;99.90;;;;;;5076404;28;20445;-42
2023/07/20 03:30:55;;;;;;;1.83;1.60;;;19.30;99.90;;;;;;5065809;28;20048;-41
2023/07/20 03:33:29;;;;;;;5.53;1.45;;;19.30;99.90;;;;;;5066332;28;20489;-39
2023/07/20 03:35:55;;;;;;;2.85;1.90;;;19.20;99.90;;;;;;5065735;28;20024;-41
2023/07/20 03:38:25;;;;;;;2.33;1.58;;;19.10;99.90;;;;;;5067296;28;20551;-42
2023/07/20 03:40:56;;;;;;;2.85;1.52;;;19.10;99.90;;;;;;5059667;28;20551;-42
2023/07/20 03:43:23;;;;;;;2.35;1.60;;;19.10;99.90;;;;;;5061886;28;20040;-42
2023/07/20 03:45:49;;;;;;;4.13;1.60;;;18.90;99.90;;;;;;5062417;28;20056;-39
2023/07/20 03:48:20;;;;;;;2.05;1.65;;;18.90;99.90;;;;;;5060864;28;20433;-42
2023/07/20 03:50:46;;;;;;;3.45;1.60;;;18.90;99.90;;;;;;5061990;28;20032;-41
2023/07/20 03:53:14;;;;;;;2.22;1.77;;;18.80;99.90;;;;;;5060498;28;20131;-42
2023/07/20 03:55:40;;;;;;;3.43;1.70;;;18.70;99.90;;;;;;5060967;28;20509;-40
2023/07/20 03:58:07;;;;;;;3.35;1.60;;;18.70;99.90;;;;;;5076261;28;20377;-41
2023/07/20 04:00:32;;;;;;;2.70;1.60;;;18.60;99.90;;;;;;5059073;28;20449;-41
2023/07/20 04:02:59;;;;;;;3.08;1.50;;;18.60;99.90;;;;;;5065133;28;20029;-40
2023/07/20 04:05:25;;;;;;;1.98;1.55;;;18.60;99.90;;;;;;5063236;28;20548;-39
2023/07/20 04:07:51;;;;;;;2.22;1.90;;;18.60;99.90;;;;;;5062348;28;20036;-37
2023/07/20 04:10:18;;;;;;;2.55;1.58;;;18.50;99.90;;;;;;5061559;28;20032;-43
2023/07/20 04:12:45;;;;;;;2.53;1.75;;;18.40;99.90;;;;;;5069330;28;20087;-42
2023/07/20 04:15:11;;;;;;;2.95;1.70;;;18.50;99.90;;;;;;5063885;28;20048;-41
2023/07/20 04:17:37;;;;;;;2.17;1.67;;;18.40;99.90;;;;;;5058310;28;20021;-41
2023/07/20 04:20:02;;;;;;;3.95;1.50;;;18.30;99.90;;;;;;5064097;28;20492;-40
2023/07/20 04:22:29;;;;;;;1.70;1.52;;;18.20;99.90;;;;;;5063612;28;20397;-40
2023/07/20 04:24:54;;;;;;;2.88;1.70;;;18.20;99.90;;;;;;5062247;28;20024;-41
2023/07/20 04:27:20;;;;;;;2.42;1.70;;;18.20;99.90;;;;;;5079357;28;20393;-40
2023/07/20 04:29:46;;;;;;;1.90;1.60;;;18.10;99.90;;;;;;5062666;28;20029;-30
2023/07/20 04:32:11;;;;;;;2.40;1.50;;;18.10;99.90;;;;;;5062896;28;20039;-30
2023/07/20 04:34:37;;;;;;;4.95;1.73;;;18.00;99.90;;;;;;5063991;28;20052;-32
2023/07/20 04:37:04;;;;;;;3.13;1.40;;;17.90;99.90;;;;;;5077869;28;20522;-33
2023/07/20 04:39:30;;;;;;;1.80;1.70;;;17.90;99.90;;;;;;5078841;28;20043;-30
2023/07/20 04:41:56;;;;;;;2.05;1.65;;;17.80;99.90;;;;;;5065012;28;20063;-30
2023/07/20 04:44:22;;;;;;;3.88;1.90;;;17.80;99.90;;;;;;5064406;28;20039;-30
2023/07/20 04:46:48;;;;;;;1.50;1.40;;;17.80;99.90;;;;;;5062536;28;20382;-32
2023/07/20 04:49:13;;;;;;;1.70;1.60;;;17.80;99.90;;;;;;5066719;28;20379;-30
2023/07/20 04:51:39;;;;;;;2.42;1.60;;;17.90;99.90;;;;;;5067077;28;20036;-31
2023/07/20 04:54:05;;;;;;;2.75;1.80;;;17.80;99.90;;;;;;5067952;28;20037;-31
2023/07/20 04:56:31;;;;;;;2.97;1.65;;;17.80;99.90;;;;;;5061614;28;20033;-32
2023/07/20 04:58:57;;;;;;;3.13;1.90;;;17.70;99.90;;;;;;5064309;28;20024;-31
2023/07/20 05:01:23;;;;;;;2.20;1.40;;;17.70;99.90;;;;;;5070473;28;20650;-32
2023/07/20 05:03:49;;;;;;;1.92;1.30;;;17.70;99.90;;;;;;5090699;28;20117;-30
2023/07/20 05:06:15;;;;;;;2.25;1.50;;;17.70;99.90;;;;;;5095236;28;20028;-30
2023/07/20 05:08:41;;;;;;;3.05;1.67;;;17.80;99.90;;;;;;5090459;28;20737;-31
2023/07/20 05:11:07;;;;;;;2.60;1.70;;;17.80;99.90;;;;;;5092461;28;20115;-31
2023/07/20 05:13:33;;;;;;;2.95;1.52;;;17.80;99.90;;;;;;5087593;28;20098;-31
2023/07/20 05:15:59;;;;;;;4.80;1.60;;;18.00;99.90;;;;;;5090158;28;20607;-33
2023/07/20 05:18:24;;;;;;;1.85;1.50;;;18.00;99.90;;;;;;5091287;28;20099;-30
2023/07/20 05:20:51;;;;;;;2.28;1.70;;;18.00;99.90;;;;;;5091067;28;20392;-31
2023/07/20 05:23:18;;;;;;;3.58;1.73;;;18.00;99.90;;;;;;5090347;28;20465;-29
2023/07/20 05:25:44;;;;;;;3.80;1.87;;;17.90;99.90;;;;;;5101941;27;20024;-30
2023/07/20 05:28:09;;;;;;;3.40;1.70;;;17.90;99.90;;;;;;5085899;28;20032;-30
2023/07/20 05:30:35;;;;;;;7.85;1.80;;;17.90;99.90;;;;;;5086572;28;20078;-33
2023/07/20 05:33:01;;;;;;;2.40;1.45;;;18.00;99.90;;;;;;5067527;28;20120;-31
2023/07/20 05:35:27;;;;;;;3.33;1.80;;;18.00;99.90;;;;;;5075052;28;20016;-31
2023/07/20 05:37:53;;;;;;;2.97;1.50;;;18.10;99.90;;;;;;5069523;28;20514;-33
2023/07/20 05:40:19;;;;;;;3.88;1.92;;;18.20;99.90;;;;;;5071910;28;20279;-31
2023/07/20 05:42:51;;;;;;;2.90;1.85;;;18.40;99.90;;;;;;5072457;28;20143;-30
2023/07/20 05:45:17;;;;;;;2.80;1.75;;;18.40;99.90;;;;;;5065348;28;20078;-30
2023/07/20 05:47:43;;;;;;;1.60;1.50;;;18.40;99.90;;;;;;5068031;28;20032;-31
2023/07/20 05:50:10;;;;;;;3.28;1.67;;;18.40;99.90;;;;;;5063157;28;20505;-29
2023/07/20 05:52:38;;;;;;;3.50;1.90;;;18.40;99.90;;;;;;5096307;27;20785;-30
2023/07/20 05:55:05;;;;;;;2.67;1.90;;;18.40;99.90;;;;;;5071726;28;20033;-30
2023/07/20 05:57:31;;;;;;;2.15;1.60;;;18.40;99.90;;;;;;5064328;28;20112;-32
2023/07/20 05:59:56;;;;;;;3.47;1.65;;;18.50;99.90;;;;;;5069083;28;20107;-30
2023/07/20 06:02:22;;;;;;;2.63;1.70;;;18.40;99.90;;;;;;5068494;28;20063;-31
2023/07/20 06:04:48;;;;;;;2.50;1.77;;;18.30;99.90;;;;;;5069222;28;20043;-31
2023/07/20 06:07:14;;;;;;;2.38;1.33;;;18.30;99.90;;;;;;5073692;28;20498;-34
2023/07/20 06:09:39;;;;;;;5.18;1.80;;;18.50;99.90;;;;;;5094653;27;20597;-30
2023/07/20 06:12:06;;;;;;;6.47;1.80;;;18.60;99.90;;;;;;5071209;28;20075;-30
2023/07/20 06:14:31;;;;;;;3.40;1.75;;;18.70;99.90;;;;;;5064715;28;20032;-30
2023/07/20 06:16:57;;;;;;;2.30;1.65;;;18.60;99.90;;;;;;5069455;28;20114;-30
2023/07/20 06:19:23;;;;;;;2.47;1.50;;;18.40;99.90;;;;;;5061768;28;20471;-32
2023/07/20 06:21:51;;;;;;;3.53;1.75;;;18.40;99.90;;;;;;5068825;28;20032;-30
2023/07/20 06:24:18;;;;;;;1.95;1.50;;;18.40;99.90;;;;;;5067933;28;20032;-35
2023/07/20 06:26:44;;;;;;;2.42;1.77;;;18.50;99.90;;;;;;5063664;28;20033;-30
2023/07/20 06:29:10;;;;;;;2.58;1.60;;;18.50;99.90;;;;;;5067834;28;20816;-29
2023/07/20 06:31:36;;;;;;;2.40;1.83;;;18.60;99.90;;;;;;5066791;28;20044;-34
2023/07/20 06:34:02;;;;;;;1.98;1.45;;;18.60;99.90;;;;;;5065646;28;20406;-30
2023/07/20 06:36:28;;;;;;;2.53;1.60;;;18.60;99.90;;;;;;5070655;28;20073;-32
2023/07/20 06:38:54;;;;;;;3.03;1.60;;;18.40;99.90;;;;;;5067044;28;20028;-29
2023/07/20 06:41:20;;;;;;;5.20;2.10;;;18.50;99.90;;;;;;5067464;28;20028;-31
2023/07/20 06:43:47;;;;;;;2.67;1.65;;;18.50;99.90;;;;;;5061511;28;20032;-31
2023/07/20 06:46:13;;;;;;;3.25;1.75;;;18.70;99.90;;;;;;5065859;28;20570;-30
2023/07/20 06:48:39;;;;;;;4.60;1.77;;;18.70;99.90;;;;;;5074837;28;20031;-30
2023/07/20 06:51:04;;;;;;;5.32;1.70;;;18.80;99.90;;;;;;5062502;28;20032;-31
2023/07/20 06:53:30;;;;;;;3.17;1.48;;;18.70;99.90;;;;;;5068211;28;20087;-29
2023/07/20 06:55:59;;;;;;;3.58;2.10;;;18.70;99.90;;;;;;5068659;28;20060;-32
2023/07/20 06:58:25;;;;;;;6.13;1.80;;;18.80;99.90;;;;;;5064048;28;20033;-31
2023/07/20 07:00:51;;;;;;;4.28;1.70;;;18.80;99.90;;;;;;5066202;28;20434;-34
2023/07/20 07:03:17;;;;;;;3.05;1.83;;;19.00;99.90;;;;;;5076007;28;20119;-30
2023/07/20 07:05:45;;;;;;;3.33;1.70;;;19.20;99.90;;;;;;5066105;28;20029;-31
2023/07/20 07:08:11;;;;;;;3.00;2.05;;;19.20;99.90;;;;;;5064408;28;20021;-31
2023/07/20 07:10:37;;;;;;;3.28;1.75;;;19.20;99.90;;;;;;5066863;28;20056;-31
2023/07/20 07:13:03;;;;;;;2.97;1.40;;;19.10;99.90;;;;;;5067514;28;20040;-31
2023/07/20 07:15:29;;;;;;;3.38;1.80;;;19.00;99.90;;;;;;5065906;28;20036;-34
2023/07/20 07:17:56;;;;;;;2.70;1.70;;;19.10;99.90;;;;;;5061895;28;20028;-33
2023/07/20 07:20:23;;;;;;;2.13;1.63;;;19.20;99.90;;;;;;5067846;28;20039;-36
2023/07/20 07:22:50;;;;;;;1.77;1.45;;;19.20;99.90;;;;;;5064912;28;20025;-30
2023/07/20 07:25:16;;;;;;;3.60;1.70;;;19.30;99.90;;;;;;5061791;28;20028;-30
2023/07/20 07:27:42;;;;;;;2.50;1.50;;;19.40;99.90;;;;;;5066842;28;20690;-30
2023/07/20 07:30:08;;;;;;;4.53;1.65;;;19.30;99.90;;;;;;5064013;28;20054;-30
2023/07/20 07:32:33;;;;;;;3.05;1.63;;;19.50;99.90;;;;;;5065130;28;20105;-30
2023/07/20 07:35:00;;;;;;;1.77;1.42;;;19.60;99.90;;;;;;5066202;28;20021;-31
2023/07/20 07:37:26;;;;;;;5.10;1.90;;;19.70;99.90;;;;;;5069116;28;20469;-32
2023/07/20 07:39:52;;;;;;;4.15;1.98;;;19.60;99.90;;;;;;5067888;28;20039;-36
2023/07/20 07:42:18;;;;;;;3.83;1.60;;;19.40;99.90;;;;;;5097276;28;20036;-30
2023/07/20 07:44:44;;;;;;;2.78;1.80;;;19.50;99.90;;;;;;5062524;28;20036;-30
2023/07/20 07:47:11;;;;;;;2.20;1.45;;;19.50;99.90;;;;;;5061005;28;20384;-35
2023/07/20 07:49:37;;;;;;;4.15;1.58;;;19.70;99.90;;;;;;5067303;28;20024;-30
2023/07/20 07:52:03;;;;;;;2.63;1.58;;;19.90;99.90;;;;;;5092337;27;20075;-31
2023/07/20 07:54:29;;;;;;;2.75;1.70;;;20.10;99.90;;;;;;5062292;28;20048;-30
2023/07/20 07:56:55;;;;;;;2.35;1.60;;;20.40;99.90;;;;;;5064445;28;20029;-33
2023/07/20 07:59:21;;;;;;;4.43;1.50;;;20.60;99.90;;;;;;5062998;28;20033;-35
2023/07/20 08:01:46;;;;;;;2.45;1.80;;;20.70;99.90;;;;;;5063035;28;20568;-34
2023/07/20 08:04:13;;;;;;;5.80;2.08;;;20.80;99.90;;;;;;5061710;28;20020;-34
2023/07/20 08:06:38;;;;;;;2.00;1.48;;;20.80;99.90;;;;;;5062181;28;20523;-34
2023/07/20 08:09:05;;;;;;;2.05;1.67;;;21.10;99.90;;;;;;5061417;28;20024;-36
2023/07/20 08:11:33;;;;;;;2.40;1.55;;;21.20;99.90;;;;;;5062197;28;20036;-36
2023/07/20 08:14:00;;;;;;;3.33;1.65;;;21.20;99.90;;;;;;5059818;28;20021;-35
2023/07/20 08:16:26;;;;;;;2.55;1.48;;;21.20;99.90;;;;;;5064168;28;20032;-33
2023/07/20 08:18:51;;;;;;;3.15;1.70;;;21.60;99.90;;;;;;5063496;28;20509;-33
2023/07/20 08:21:17;;;;;;;1.92;1.45;;;21.60;99.90;;;;;;5061480;28;20040;-32
2023/07/20 08:23:43;;;;;;;2.95;1.40;;;21.50;99.90;;;;;;5063211;28;20457;-32
2023/07/20 08:26:08;;;;;;;1.75;1.45;;;21.60;99.90;;;;;;5082226;28;20393;-33
2023/07/20 08:28:35;;;;;;;3.03;1.77;;;21.30;99.90;;;;;;5065338;28;20056;-36
2023/07/20 08:31:00;;;;;;;1.95;1.42;;;21.50;99.90;;;;;;5065299;28;20510;-36
2023/07/20 08:33:29;;;;;;;3.47;1.63;;;21.30;99.90;;;;;;5074772;28;20032;-32
2023/07/20 08:35:56;;;;;;;4.30;1.80;;;21.50;99.90;;;;;;5060218;28;20031;-32
2023/07/20 08:38:22;;;;;;;2.42;1.60;;;21.80;99.90;;;;;;5064872;28;20656;-36
2023/07/20 08:40:48;;;;;;;2.63;2.00;;;21.80;99.90;;;;;;5077109;28;20049;-32
2023/07/20 08:43:16;;;;;;;1.83;1.50;;;22.10;99.90;;;;;;5064337;28;20494;-32
2023/07/20 08:45:44;;;;;;;2.58;1.48;;;22.30;99.90;;;;;;5074738;28;20170;-34
2023/07/20 08:48:12;;;;;;;4.80;1.45;;;22.70;99.90;;;;;;5064170;28;20111;-33
2023/07/20 08:50:38;;;;;;;2.30;1.33;;;23.00;99.90;;;;;;5062644;28;20041;-32
2023/07/20 08:53:05;;;;;;;1.73;1.60;;;23.00;99.90;;;;;;5062433;28;20017;-32
2023/07/20 08:55:33;;;;;;;2.05;1.67;;;22.80;99.90;;;;;;5057224;28;20049;-35
2023/07/20 08:58:00;;;;;;;2.90;1.48;;;22.80;99.90;;;;;;5066237;28;20513;-33
2023/07/20 09:00:29;;;;;;;4.10;1.93;;;22.80;99.90;;;;;;5059165;28;20029;-34
2023/07/20 09:02:55;;;;;;;1.65;1.42;;;23.10;99.90;;;;;;5095528;28;20786;-35
2023/07/20 09:05:23;;;;;;;3.08;1.70;;;23.20;99.90;;;;;;5065073;28;20114;-34
2023/07/20 09:07:49;;;;;;;1.50;1.40;;;23.10;99.90;;;;;;5075439;28;20040;-32
2023/07/20 09:10:15;;;;;;;2.15;1.60;;;23.20;99.90;;;;;;5062269;28;20036;-32
2023/07/20 09:12:43;;;;;;;2.00;1.67;;;23.30;99.90;;;;;;5061282;28;20017;-34
2023/07/20 09:15:10;;;;;;;3.58;1.50;;;23.00;99.90;;;;;;5059144;28;20397;-32
2023/07/20 09:17:37;;;;;;;2.80;1.58;;;23.00;99.90;;;;;;5064813;28;20029;-32
2023/07/20 09:20:10;;;;;;;2.80;2.00;;;23.40;99.90;;;;;;5078885;28;20036;-32
2023/07/20 09:22:40;;;;;;;1.83;1.67;;;23.60;99.90;;;;;;5062000;28;20035;-34
2023/07/20 09:25:15;;;;;;;1.50;1.40;;;23.30;99.90;;;;;;5061394;28;20076;-33
2023/07/20 09:27:43;;;;;;;1.60;1.38;;;23.60;99.90;;;;;;5060931;28;20032;-35
2023/07/20 09:30:11;;;;;;;;;;;23.40;99.90;;;;;;5066661;28;20032;-33
2023/07/20 09:32:43;;;;;;;1.90;1.50;;;23.00;99.90;;;;;;5057565;28;19913;-32
2023/07/20 09:35:20;;;;;;;2.10;1.45;;;22.80;99.90;;;;;;5063905;28;20035;-32
2023/07/20 09:37:59;;;;;;;1.70;1.40;;;22.70;99.90;;;;;;5074247;28;20094;-32
2023/07/20 09:40:26;;;;;;;2.92;1.35;;;22.20;99.90;;;;;;5096640;28;20039;-33
2023/07/20 09:43:00;;;;;;;2.40;1.67;;;22.40;99.90;;;;;;5064125;28;20064;-33
2023/07/20 09:45:32;;;;;;;2.20;1.60;;;22.60;99.90;;;;;;5057802;28;20091;-33
2023/07/20 09:48:05;;;;;;;1.52;1.30;;;22.60;99.90;;;;;;5058470;28;20488;-33
2023/07/20 09:50:31;;;;;;;2.22;1.40;;;23.00;99.90;;;;;;5057908;28;20055;-33
2023/07/20 09:52:56;;;;;;;2.42;1.45;;;23.20;99.90;;;;;;5071446;28;20052;-33
2023/07/20 09:55:24;;;;;;;4.10;1.45;;;23.30;99.90;;;;;;5064255;28;20529;-32
2023/07/20 09:57:50;;;;;;;2.03;1.50;;;23.20;99.90;;;;;;5074579;28;20070;-32
2023/07/20 10:00:16;;;;;;;1.58;1.35;;;23.10;99.90;;;;;;5091632;27;20052;-34
2023/07/20 10:02:46;;;;;;;1.95;1.52;;;23.00;99.90;;;;;;5064956;28;20036;-33
2023/07/20 10:05:14;;;;;;;1.70;1.60;;;23.10;99.90;;;;;;5063259;28;20035;-36
2023/07/20 10:07:50;;;;;;;2.47;1.45;;;22.90;99.90;;;;;;5061677;28;20098;-34
2023/07/20 10:10:18;;;;;;;2.75;1.80;;;23.00;99.90;;;;;;5063162;28;20517;-33
2023/07/20 10:12:47;;;;;;;5.10;1.42;;;23.20;99.90;;;;;;5066442;28;20110;-32
2023/07/20 10:15:29;;;;;;;1.75;1.60;;;23.70;99.90;;;;;;5084811;28;20039;-33
2023/07/20 10:18:23;;;;;;;1.73;1.42;;;24.50;99.90;;;;;;5064194;28;20119;-32
2023/07/20 10:20:51;;;;;;;1.90;1.52;;;24.70;99.90;;;;;;5078306;28;20032;-41
2023/07/20 10:23:17;;;;;;;3.25;1.60;;;24.80;99.90;;;;;;5064445;28;20056;-37
2023/07/20 10:25:45;;;;;;;3.28;1.42;;;24.70;99.90;;;;;;5058905;28;20720;-40
2023/07/20 10:28:11;;;;;;;;;;;24.10;99.90;;;;;;5063187;28;20029;-41
2023/07/20 10:30:37;;;;;;;2.97;1.45;;;24.00;99.90;;;;;;5061963;28;19927;-40
2023/07/20 10:33:04;;;;;;;2.20;1.90;;;23.90;99.90;;;;;;5091311;28;20527;-38
2023/07/20 10:35:30;;;;;;;2.78;1.55;;;23.20;99.90;;;;;;5085805;28;20495;-38
2023/07/20 10:38:05;;;;;;;3.70;1.80;;;23.40;99.90;;;;;;5114481;27;20541;-39
2023/07/20 10:40:33;;;;;;;2.55;1.65;;;23.70;99.90;;;;;;5099807;27;20032;-40
2023/07/20 10:43:03;;;;;;;;;;;23.60;99.90;;;;;;5086912;28;20253;-41
2023/07/20 10:45:36;;;;;;;2.85;1.60;;;23.40;99.90;;;;;;5113296;27;19911;-41
2023/07/20 10:48:25;;;;;;;1.50;1.40;;;23.50;99.90;;;;;;5082998;28;20101;-40
2023/07/20 10:51:14;;;;;;;1.42;1.33;;;24.00;99.90;;;;;;5100607;28;20027;-42
2023/07/20 10:53:40;;;;;;;1.63;1.40;;;24.50;99.90;;;;;;5084196;28;20052;-39
2023/07/20 10:56:16;;;;;;;1.90;1.55;;;24.00;99.90;;;;;;5083965;28;20076;-42
2023/07/20 10:58:42;;;;;;;2.30;1.40;;;23.60;99.90;;;;;;5097491;28;20417;-40
2023/07/20 11:01:08;;;;;;;3.20;1.60;;;23.70;99.90;;;;;;5096965;27;20119;-38
2023/07/20 11:03:42;;;;;;;2.55;1.85;;;23.80;99.90;;;;;;5084643;28;20319;-41
2023/07/20 11:06:26;;;;;;;2.60;1.50;;;23.50;99.90;;;;;;5094614;27;20023;-42
2023/07/20 11:09:15;;;;;;;3.83;1.50;;;23.40;99.90;;;;;;5082426;28;20024;-40
2023/07/20 11:11:47;;;;;;;1.70;1.40;;;23.30;99.90;;;;;;5082565;28;20374;-39
2023/07/20 11:14:22;;;;;;;1.77;1.67;;;23.40;99.90;;;;;;5099865;27;20454;-39
2023/07/20 11:16:51;;;;;;;1.92;1.60;;;23.60;99.90;;;;;;5099167;27;20031;-39
2023/07/20 11:19:22;;;;;;;2.20;1.52;;;23.40;99.90;;;;;;5084963;28;20063;-42
2023/07/20 11:21:54;;;;;;;2.70;2.50;;;23.60;99.90;;;;;;5080307;28;20009;-38
2023/07/20 11:24:20;;;;;;;2.38;1.50;;;23.50;99.90;;;;;;5082000;28;20117;-40
2023/07/20 11:26:50;;;;;;;1.60;1.50;;;23.50;99.90;;;;;;5085006;28;20481;-39
2023/07/20 11:29:18;;;;;;;3.65;1.55;;;23.40;99.90;;;;;;5104620;27;20141;-30
2023/07/20 11:31:45;;;;;;;3.10;1.50;;;23.30;99.90;;;;;;5083405;28;20044;-31
2023/07/20 11:34:13;;;;;;;2.88;1.80;;;23.10;99.90;;;;;;5099371;28;20041;-32
2023/07/20 11:36:50;;;;;;;2.63;1.83;;;23.10;99.90;;;;;;5084562;28;20083;-31
2023/07/20 11:39:19;;;;;;;6.13;2.17;;;23.30;99.90;;;;;;5082346;28;20029;-30
2023/07/20 11:41:47;;;;;;;2.00;1.60;;;23.00;99.90;;;;;;5091086;28;20024;-31
2023/07/20 11:44:14;;;;;;;2.65;1.42;;;23.00;99.90;;;;;;5098710;27;20020;-34
2023/07/20 11:46:42;;;;;;;2.10;1.60;;;22.80;99.90;;;;;;5088499;28;20035;-31
2023/07/20 11:49:08;;;;;;;1.92;1.70;;;22.80;99.90;;;;;;5087271;28;20114;-31
2023/07/20 11:51:35;;;;;;;3.30;1.50;;;23.10;99.90;;;;;;5097679;28;20076;-30
2023/07/20 11:54:03;;;;;;;2.25;1.70;;;23.40;99.90;;;;;;5082984;28;20040;-33
2023/07/20 11:56:28;;;;;;;2.75;1.45;;;23.80;99.90;;;;;;5081446;28;20024;-31
2023/07/20 11:58:56;;;;;;;2.53;1.80;;;24.30;99.90;;;;;;5084919;28;20040;-30
2023/07/20 12:01:23;;;;;;;2.72;1.60;;;24.50;99.90;;;;;;5078058;28;20489;-32
2023/07/20 12:03:50;;;;;;;2.20;2.00;;;24.70;99.90;;;;;;5087016;28;20030;-31
2023/07/20 12:06:16;;;;;;;1.75;1.45;;;24.70;99.90;;;;;;5086596;28;20023;-30
2023/07/20 12:08:44;;;;;;;2.50;1.75;;;24.60;99.90;;;;;;5084788;28;20450;-33
2023/07/20 12:11:10;;;;;;;1.95;1.65;;;24.30;99.90;;;;;;5085553;28;20493;-33
2023/07/20 12:13:44;;;;;;;2.88;1.65;;;24.20;99.90;;;;;;5094336;28;20081;-30
2023/07/20 12:16:16;;;;;;;1.65;1.42;;;24.20;99.90;;;;;;5086017;28;20047;-29
2023/07/20 12:18:45;;;;;;;1.65;1.48;;;23.70;99.90;;;;;;5081258;28;20024;-30
2023/07/20 12:21:11;;;;;;;4.82;2.22;;;23.70;99.90;;;;;;5085821;28;20049;-32
2023/07/20 12:23:39;;;;;;;2.00;1.80;;;24.10;99.90;;;;;;5099951;28;20654;-30
2023/07/20 12:26:09;;;;;;;1.67;1.58;;;24.10;99.90;;;;;;5085379;28;20397;-33
2023/07/20 12:28:44;;;;;;;1.90;1.50;;;24.40;99.90;;;;;;5083791;28;20111;-32
2023/07/20 12:31:10;;;;;;;1.90;1.63;;;24.50;99.90;;;;;;5082626;28;20127;-31
2023/07/20 12:33:37;;;;;;;1.67;1.50;;;24.90;99.90;;;;;;5096498;28;20485;-32
2023/07/20 12:36:04;;;;;;;2.20;1.63;;;25.30;99.90;;;;;;5080467;28;20147;-31
2023/07/20 12:38:33;;;;;;;2.65;1.50;;;25.20;99.90;;;;;;5098130;28;20405;-37
2023/07/20 12:41:01;;;;;;;3.47;1.60;;;25.30;99.90;;;;;;5084151;28;20110;-39
2023/07/20 12:43:26;;;;;;;;;;;25.50;99.90;;;;;;5102637;27;20026;-41
2023/07/20 12:45:52;;;;;;;2.47;1.80;;;25.80;99.90;;;;;;5113662;27;20351;-38
2023/07/20 12:48:18;;;;;;;1.30;1.20;;;25.70;99.90;;;;;;5083220;28;20032;-40
2023/07/20 12:50:44;;;;;;;2.33;1.60;;;26.00;99.90;;;;;;5078077;28;20028;-41